sensor_id;sensor_type;location;lat;lon;timestamp;P1;durP1;ratioP1;P2;durP2;ratioP2
14203;SDS011;7185;51.854;6.622;2023-03-29T00:01:06;14.65;;;7.72;;
14203;SDS011;7185;51.854;6.622;2023-03-29T00:03:39;17.20;;;8.52;;
14203;SDS011;7185;51.854;6.622;2023-03-29T00:06:14;16.42;;;8.32;;
14203;SDS011;7185;51.854;6.622;2023-03-29T00:08:51;14.13;;;8.07;;
14203;SDS011;7185;51.854;6.622;2023-03-29T00:11:23;15.85;;;8.25;;
14203;SDS011;7185;51.854;6.622;2023-03-29T00:13:56;16.38;;;8.40;;
14203;SDS011;7185;51.854;6.622;2023-03-29T00:16:27;16.63;;;8.32;;
14203;SDS011;7185;51.854;6.622;2023-03-29T00:19:00;16.40;;;8.25;;
14203;SDS011;7185;51.854;6.622;2023-03-29T00:21:32;13.90;;;7.57;;
14203;SDS011;7185;51.854;6.622;2023-03-29T00:24:04;16.23;;;8.10;;
14203;SDS011;7185;51.854;6.622;2023-03-29T00:26:36;13.07;;;7.55;;
14203;SDS011;7185;51.854;6.622;2023-03-29T00:29:08;12.77;;;7.90;;
14203;SDS011;7185;51.854;6.622;2023-03-29T00:31:39;16.35;;;7.53;;
14203;SDS011;7185;51.854;6.622;2023-03-29T00:34:11;14.18;;;7.43;;
14203;SDS011;7185;51.854;6.622;2023-03-29T00:36:47;17.08;;;7.95;;
14203;SDS011;7185;51.854;6.622;2023-03-29T00:39:20;13.38;;;7.22;;
14203;SDS011;7185;51.854;6.622;2023-03-29T00:41:51;13.52;;;7.75;;
14203;SDS011;7185;51.854;6.622;2023-03-29T00:47:32;11.70;;;7.30;;
14203;SDS011;7185;51.854;6.622;2023-03-29T00:50:09;13.73;;;7.82;;
14203;SDS011;7185;51.854;6.622;2023-03-29T00:52:47;15.80;;;8.25;;
14203;SDS011;7185;51.854;6.622;2023-03-29T00:55:23;16.52;;;7.63;;
14203;SDS011;7185;51.854;6.622;2023-03-29T00:57:57;16.55;;;8.43;;
14203;SDS011;7185;51.854;6.622;2023-03-29T01:00:30;17.65;;;8.00;;
14203;SDS011;7185;51.854;6.622;2023-03-29T01:03:07;15.60;;;8.90;;
14203;SDS011;7185;51.854;6.622;2023-03-29T01:05:43;19.02;;;9.20;;
14203;SDS011;7185;51.854;6.622;2023-03-29T01:08:19;15.52;;;8.35;;
14203;SDS011;7185;51.854;6.622;2023-03-29T01:10:57;14.10;;;7.88;;
14203;SDS011;7185;51.854;6.622;2023-03-29T01:13:34;17.95;;;8.80;;
14203;SDS011;7185;51.854;6.622;2023-03-29T01:16:17;15.70;;;8.63;;
14203;SDS011;7185;51.854;6.622;2023-03-29T01:18:51;17.17;;;9.07;;
14203;SDS011;7185;51.854;6.622;2023-03-29T01:21:24;16.30;;;8.88;;
14203;SDS011;7185;51.854;6.622;2023-03-29T01:24:13;19.67;;;8.70;;
14203;SDS011;7185;51.854;6.622;2023-03-29T01:26:59;16.35;;;8.82;;
14203;SDS011;7185;51.854;6.622;2023-03-29T01:29:38;17.20;;;9.50;;
14203;SDS011;7185;51.854;6.622;2023-03-29T01:32:16;20.63;;;9.68;;
14203;SDS011;7185;51.854;6.622;2023-03-29T01:34:54;18.90;;;10.05;;
14203;SDS011;7185;51.854;6.622;2023-03-29T01:37:31;19.02;;;9.70;;
14203;SDS011;7185;51.854;6.622;2023-03-29T01:40:07;18.95;;;10.60;;
14203;SDS011;7185;51.854;6.622;2023-03-29T01:42:41;18.25;;;9.90;;
14203;SDS011;7185;51.854;6.622;2023-03-29T01:45:21;19.83;;;10.02;;
14203;SDS011;7185;51.854;6.622;2023-03-29T01:47:56;15.32;;;9.77;;
14203;SDS011;7185;51.854;6.622;2023-03-29T01:50:35;20.70;;;10.85;;
14203;SDS011;7185;51.854;6.622;2023-03-29T01:53:13;20.95;;;11.27;;
14203;SDS011;7185;51.854;6.622;2023-03-29T01:55:48;23.77;;;11.23;;
14203;SDS011;7185;51.854;6.622;2023-03-29T01:58:24;17.83;;;10.25;;
14203;SDS011;7185;51.854;6.622;2023-03-29T02:03:40;16.08;;;9.55;;
14203;SDS011;7185;51.854;6.622;2023-03-29T02:06:20;19.70;;;10.30;;
14203;SDS011;7185;51.854;6.622;2023-03-29T02:08:55;19.60;;;10.10;;
14203;SDS011;7185;51.854;6.622;2023-03-29T02:11:27;16.83;;;9.75;;
14203;SDS011;7185;51.854;6.622;2023-03-29T02:13:59;18.20;;;9.77;;
14203;SDS011;7185;51.854;6.622;2023-03-29T02:16:36;18.52;;;9.40;;
14203;SDS011;7185;51.854;6.622;2023-03-29T02:19:09;20.55;;;10.05;;
14203;SDS011;7185;51.854;6.622;2023-03-29T02:21:42;17.17;;;9.85;;
14203;SDS011;7185;51.854;6.622;2023-03-29T02:24:18;19.25;;;9.73;;
14203;SDS011;7185;51.854;6.622;2023-03-29T02:26:51;19.63;;;10.00;;
14203;SDS011;7185;51.854;6.622;2023-03-29T02:29:23;19.88;;;9.95;;
14203;SDS011;7185;51.854;6.622;2023-03-29T02:31:57;16.15;;;9.90;;
14203;SDS011;7185;51.854;6.622;2023-03-29T02:34:34;24.27;;;9.63;;
14203;SDS011;7185;51.854;6.622;2023-03-29T02:37:11;20.70;;;10.32;;
14203;SDS011;7185;51.854;6.622;2023-03-29T02:39:47;22.30;;;10.95;;
14203;SDS011;7185;51.854;6.622;2023-03-29T02:42:21;17.92;;;9.95;;
14203;SDS011;7185;51.854;6.622;2023-03-29T02:44:55;18.60;;;9.82;;
14203;SDS011;7185;51.854;6.622;2023-03-29T02:47:36;17.85;;;9.80;;
14203;SDS011;7185;51.854;6.622;2023-03-29T02:50:11;18.67;;;9.57;;
14203;SDS011;7185;51.854;6.622;2023-03-29T02:52:45;18.35;;;9.20;;
14203;SDS011;7185;51.854;6.622;2023-03-29T02:55:23;16.83;;;9.05;;
14203;SDS011;7185;51.854;6.622;2023-03-29T02:58:00;15.00;;;8.70;;
14203;SDS011;7185;51.854;6.622;2023-03-29T03:00:38;16.02;;;8.70;;
14203;SDS011;7185;51.854;6.622;2023-03-29T03:03:15;16.65;;;8.38;;
14203;SDS011;7185;51.854;6.622;2023-03-29T03:05:46;15.30;;;8.43;;
14203;SDS011;7185;51.854;6.622;2023-03-29T03:08:19;15.57;;;8.55;;
14203;SDS011;7185;51.854;6.622;2023-03-29T03:10:50;16.48;;;8.95;;
14203;SDS011;7185;51.854;6.622;2023-03-29T03:13:23;16.27;;;8.88;;
14203;SDS011;7185;51.854;6.622;2023-03-29T03:15:54;15.57;;;8.30;;
14203;SDS011;7185;51.854;6.622;2023-03-29T03:18:27;13.70;;;8.65;;
14203;SDS011;7185;51.854;6.622;2023-03-29T03:20:59;17.05;;;9.95;;
14203;SDS011;7185;51.854;6.622;2023-03-29T03:23:31;16.17;;;8.68;;
14203;SDS011;7185;51.854;6.622;2023-03-29T03:26:03;16.40;;;7.72;;
14203;SDS011;7185;51.854;6.622;2023-03-29T03:28:35;12.30;;;7.65;;
14203;SDS011;7185;51.854;6.622;2023-03-29T03:31:08;14.75;;;8.23;;
14203;SDS011;7185;51.854;6.622;2023-03-29T03:33:41;15.30;;;8.30;;
14203;SDS011;7185;51.854;6.622;2023-03-29T03:36:19;12.63;;;7.40;;
14203;SDS011;7185;51.854;6.622;2023-03-29T03:38:55;13.10;;;7.57;;
14203;SDS011;7185;51.854;6.622;2023-03-29T03:41:27;14.20;;;8.65;;
14203;SDS011;7185;51.854;6.622;2023-03-29T03:43:58;14.00;;;6.65;;
14203;SDS011;7185;51.854;6.622;2023-03-29T03:46:30;14.63;;;7.20;;
14203;SDS011;7185;51.854;6.622;2023-03-29T03:49:04;14.07;;;6.90;;
14203;SDS011;7185;51.854;6.622;2023-03-29T03:51:35;11.65;;;6.68;;
14203;SDS011;7185;51.854;6.622;2023-03-29T03:54:07;13.55;;;7.10;;
14203;SDS011;7185;51.854;6.622;2023-03-29T03:56:38;12.55;;;6.28;;
14203;SDS011;7185;51.854;6.622;2023-03-29T03:59:10;13.25;;;6.70;;
14203;SDS011;7185;51.854;6.622;2023-03-29T04:01:41;10.35;;;5.75;;
14203;SDS011;7185;51.854;6.622;2023-03-29T04:04:15;12.95;;;7.40;;
14203;SDS011;7185;51.854;6.622;2023-03-29T04:06:48;12.80;;;6.80;;
14203;SDS011;7185;51.854;6.622;2023-03-29T04:09:20;12.50;;;6.65;;
14203;SDS011;7185;51.854;6.622;2023-03-29T04:11:52;13.30;;;6.40;;
14203;SDS011;7185;51.854;6.622;2023-03-29T04:14:25;12.93;;;7.03;;
14203;SDS011;7185;51.854;6.622;2023-03-29T04:16:57;12.00;;;6.65;;
14203;SDS011;7185;51.854;6.622;2023-03-29T04:19:29;9.52;;;6.80;;
14203;SDS011;7185;51.854;6.622;2023-03-29T04:22:01;17.00;;;7.05;;
14203;SDS011;7185;51.854;6.622;2023-03-29T04:24:33;14.02;;;5.90;;
14203;SDS011;7185;51.854;6.622;2023-03-29T04:27:04;12.70;;;7.28;;
14203;SDS011;7185;51.854;6.622;2023-03-29T04:29:36;13.85;;;6.22;;
14203;SDS011;7185;51.854;6.622;2023-03-29T04:32:08;11.57;;;6.65;;
14203;SDS011;7185;51.854;6.622;2023-03-29T04:34:40;10.68;;;6.53;;
14203;SDS011;7185;51.854;6.622;2023-03-29T04:37:12;11.75;;;6.38;;
14203;SDS011;7185;51.854;6.622;2023-03-29T04:39:45;10.85;;;6.70;;
14203;SDS011;7185;51.854;6.622;2023-03-29T04:42:17;10.52;;;6.38;;
14203;SDS011;7185;51.854;6.622;2023-03-29T04:44:48;10.70;;;6.05;;
14203;SDS011;7185;51.854;6.622;2023-03-29T04:47:20;14.13;;;7.00;;
14203;SDS011;7185;51.854;6.622;2023-03-29T04:49:53;14.40;;;6.55;;
14203;SDS011;7185;51.854;6.622;2023-03-29T04:52:25;10.57;;;6.43;;
14203;SDS011;7185;51.854;6.622;2023-03-29T04:54:56;16.63;;;7.15;;
14203;SDS011;7185;51.854;6.622;2023-03-29T04:57:28;14.30;;;7.55;;
14203;SDS011;7185;51.854;6.622;2023-03-29T05:00:00;11.93;;;7.20;;
14203;SDS011;7185;51.854;6.622;2023-03-29T05:05:10;13.65;;;6.22;;
14203;SDS011;7185;51.854;6.622;2023-03-29T05:07:42;12.88;;;6.65;;
14203;SDS011;7185;51.854;6.622;2023-03-29T05:10:14;11.32;;;6.22;;
14203;SDS011;7185;51.854;6.622;2023-03-29T05:12:46;14.30;;;6.80;;
14203;SDS011;7185;51.854;6.622;2023-03-29T05:15:22;16.08;;;6.60;;
14203;SDS011;7185;51.854;6.622;2023-03-29T05:17:54;11.95;;;6.70;;
14203;SDS011;7185;51.854;6.622;2023-03-29T05:20:27;11.52;;;6.15;;
14203;SDS011;7185;51.854;6.622;2023-03-29T05:23:00;16.67;;;7.00;;
14203;SDS011;7185;51.854;6.622;2023-03-29T05:25:32;15.60;;;7.22;;
14203;SDS011;7185;51.854;6.622;2023-03-29T05:28:03;12.55;;;6.88;;
14203;SDS011;7185;51.854;6.622;2023-03-29T05:30:35;13.25;;;6.57;;
14203;SDS011;7185;51.854;6.622;2023-03-29T05:33:07;11.82;;;6.35;;
14203;SDS011;7185;51.854;6.622;2023-03-29T05:35:40;15.52;;;7.32;;
14203;SDS011;7185;51.854;6.622;2023-03-29T05:38:12;12.98;;;7.32;;
14203;SDS011;7185;51.854;6.622;2023-03-29T05:40:45;13.90;;;6.70;;
14203;SDS011;7185;51.854;6.622;2023-03-29T05:43:16;14.85;;;7.20;;
14203;SDS011;7185;51.854;6.622;2023-03-29T05:45:48;14.93;;;6.88;;
14203;SDS011;7185;51.854;6.622;2023-03-29T05:48:19;14.35;;;7.63;;
14203;SDS011;7185;51.854;6.622;2023-03-29T05:50:54;17.65;;;8.05;;
14203;SDS011;7185;51.854;6.622;2023-03-29T05:53:26;11.77;;;6.22;;
14203;SDS011;7185;51.854;6.622;2023-03-29T05:55:58;12.68;;;6.78;;
14203;SDS011;7185;51.854;6.622;2023-03-29T05:58:33;13.05;;;6.82;;
14203;SDS011;7185;51.854;6.622;2023-03-29T06:01:09;12.07;;;6.30;;
14203;SDS011;7185;51.854;6.622;2023-03-29T06:03:41;14.02;;;6.68;;
14203;SDS011;7185;51.854;6.622;2023-03-29T06:06:16;15.70;;;7.03;;
14203;SDS011;7185;51.854;6.622;2023-03-29T06:08:48;12.88;;;6.53;;
14203;SDS011;7185;51.854;6.622;2023-03-29T06:11:19;12.18;;;6.50;;
14203;SDS011;7185;51.854;6.622;2023-03-29T06:13:53;11.43;;;5.88;;
14203;SDS011;7185;51.854;6.622;2023-03-29T06:16:24;16.60;;;7.18;;
14203;SDS011;7185;51.854;6.622;2023-03-29T06:18:56;12.07;;;6.30;;
14203;SDS011;7185;51.854;6.622;2023-03-29T06:21:29;13.27;;;5.88;;
14203;SDS011;7185;51.854;6.622;2023-03-29T06:24:02;14.70;;;6.43;;
14203;SDS011;7185;51.854;6.622;2023-03-29T06:26:34;14.73;;;6.82;;
14203;SDS011;7185;51.854;6.622;2023-03-29T06:29:05;13.73;;;6.68;;
14203;SDS011;7185;51.854;6.622;2023-03-29T06:31:37;12.98;;;6.50;;
14203;SDS011;7185;51.854;6.622;2023-03-29T06:34:09;13.57;;;7.30;;
14203;SDS011;7185;51.854;6.622;2023-03-29T06:36:44;11.77;;;6.57;;
14203;SDS011;7185;51.854;6.622;2023-03-29T06:39:15;12.60;;;6.50;;
14203;SDS011;7185;51.854;6.622;2023-03-29T06:41:47;12.52;;;6.35;;
14203;SDS011;7185;51.854;6.622;2023-03-29T06:44:19;13.98;;;7.13;;
14203;SDS011;7185;51.854;6.622;2023-03-29T06:46:50;11.48;;;6.65;;
14203;SDS011;7185;51.854;6.622;2023-03-29T06:49:22;13.02;;;6.53;;
14203;SDS011;7185;51.854;6.622;2023-03-29T06:51:55;12.80;;;6.70;;
14203;SDS011;7185;51.854;6.622;2023-03-29T06:54:27;14.55;;;7.13;;
14203;SDS011;7185;51.854;6.622;2023-03-29T06:56:58;16.38;;;7.45;;
14203;SDS011;7185;51.854;6.622;2023-03-29T06:59:30;14.05;;;7.40;;
14203;SDS011;7185;51.854;6.622;2023-03-29T07:02:02;17.00;;;7.43;;
14203;SDS011;7185;51.854;6.622;2023-03-29T07:04:34;15.30;;;7.30;;
14203;SDS011;7185;51.854;6.622;2023-03-29T07:07:06;16.23;;;8.10;;
14203;SDS011;7185;51.854;6.622;2023-03-29T07:09:48;12.40;;;7.15;;
14203;SDS011;7185;51.854;6.622;2023-03-29T07:12:24;13.50;;;7.43;;
14203;SDS011;7185;51.854;6.622;2023-03-29T07:14:56;16.20;;;8.48;;
14203;SDS011;7185;51.854;6.622;2023-03-29T07:17:27;20.90;;;8.13;;
14203;SDS011;7185;51.854;6.622;2023-03-29T07:19:59;14.00;;;7.97;;
14203;SDS011;7185;51.854;6.622;2023-03-29T07:22:32;13.60;;;7.57;;
14203;SDS011;7185;51.854;6.622;2023-03-29T07:25:04;17.92;;;8.20;;
14203;SDS011;7185;51.854;6.622;2023-03-29T07:27:39;17.23;;;8.48;;
14203;SDS011;7185;51.854;6.622;2023-03-29T07:30:12;15.63;;;8.15;;
14203;SDS011;7185;51.854;6.622;2023-03-29T07:32:45;15.00;;;7.43;;
14203;SDS011;7185;51.854;6.622;2023-03-29T07:35:17;12.82;;;7.25;;
14203;SDS011;7185;51.854;6.622;2023-03-29T07:37:51;16.35;;;7.75;;
14203;SDS011;7185;51.854;6.622;2023-03-29T07:40:24;13.23;;;7.47;;
14203;SDS011;7185;51.854;6.622;2023-03-29T07:42:56;15.38;;;8.32;;
14203;SDS011;7185;51.854;6.622;2023-03-29T07:45:28;15.55;;;7.90;;
14203;SDS011;7185;51.854;6.622;2023-03-29T07:47:59;16.33;;;7.65;;
14203;SDS011;7185;51.854;6.622;2023-03-29T07:50:31;18.13;;;8.07;;
14203;SDS011;7185;51.854;6.622;2023-03-29T07:53:04;14.98;;;8.13;;
14203;SDS011;7185;51.854;6.622;2023-03-29T07:55:36;12.93;;;6.57;;
14203;SDS011;7185;51.854;6.622;2023-03-29T07:58:15;16.05;;;7.57;;
14203;SDS011;7185;51.854;6.622;2023-03-29T08:00:47;16.30;;;8.15;;
14203;SDS011;7185;51.854;6.622;2023-03-29T08:03:19;13.23;;;7.40;;
14203;SDS011;7185;51.854;6.622;2023-03-29T08:05:51;14.93;;;6.82;;
14203;SDS011;7185;51.854;6.622;2023-03-29T08:08:24;14.07;;;7.47;;
14203;SDS011;7185;51.854;6.622;2023-03-29T08:10:57;16.30;;;7.13;;
14203;SDS011;7185;51.854;6.622;2023-03-29T08:13:28;17.33;;;7.10;;
14203;SDS011;7185;51.854;6.622;2023-03-29T08:16:00;14.68;;;7.25;;
14203;SDS011;7185;51.854;6.622;2023-03-29T08:18:32;15.27;;;7.85;;
14203;SDS011;7185;51.854;6.622;2023-03-29T08:21:04;10.88;;;6.50;;
14203;SDS011;7185;51.854;6.622;2023-03-29T08:23:37;13.45;;;7.18;;
14203;SDS011;7185;51.854;6.622;2023-03-29T08:26:09;15.40;;;7.38;;
14203;SDS011;7185;51.854;6.622;2023-03-29T08:28:40;16.55;;;7.10;;
14203;SDS011;7185;51.854;6.622;2023-03-29T08:31:12;16.13;;;7.63;;
14203;SDS011;7185;51.854;6.622;2023-03-29T08:33:45;13.30;;;7.20;;
14203;SDS011;7185;51.854;6.622;2023-03-29T08:36:17;12.30;;;6.88;;
14203;SDS011;7185;51.854;6.622;2023-03-29T08:38:50;12.60;;;7.50;;
14203;SDS011;7185;51.854;6.622;2023-03-29T08:41:25;11.38;;;6.28;;
14203;SDS011;7185;51.854;6.622;2023-03-29T08:44:10;14.93;;;6.70;;
14203;SDS011;7185;51.854;6.622;2023-03-29T08:46:51;13.35;;;6.55;;
14203;SDS011;7185;51.854;6.622;2023-03-29T08:49:29;14.93;;;6.82;;
14203;SDS011;7185;51.854;6.622;2023-03-29T08:52:02;11.38;;;6.70;;
14203;SDS011;7185;51.854;6.622;2023-03-29T08:54:39;15.75;;;6.93;;
14203;SDS011;7185;51.854;6.622;2023-03-29T08:57:15;14.45;;;6.47;;
14203;SDS011;7185;51.854;6.622;2023-03-29T08:59:51;13.02;;;7.03;;
14203;SDS011;7185;51.854;6.622;2023-03-29T09:02:26;11.75;;;6.78;;
14203;SDS011;7185;51.854;6.622;2023-03-29T09:05:06;14.23;;;6.03;;
14203;SDS011;7185;51.854;6.622;2023-03-29T09:07:47;13.10;;;5.95;;
14203;SDS011;7185;51.854;6.622;2023-03-29T09:10:22;9.05;;;5.85;;
14203;SDS011;7185;51.854;6.622;2023-03-29T09:13:07;11.82;;;5.50;;
14203;SDS011;7185;51.854;6.622;2023-03-29T09:15:50;11.70;;;6.72;;
14203;SDS011;7185;51.854;6.622;2023-03-29T09:18:32;11.00;;;6.63;;
14203;SDS011;7185;51.854;6.622;2023-03-29T09:21:14;10.98;;;6.20;;
14203;SDS011;7185;51.854;6.622;2023-03-29T09:23:58;11.57;;;5.65;;
14203;SDS011;7185;51.854;6.622;2023-03-29T09:26:43;14.40;;;6.03;;
14203;SDS011;7185;51.854;6.622;2023-03-29T09:29:24;11.10;;;6.05;;
14203;SDS011;7185;51.854;6.622;2023-03-29T09:32:11;10.80;;;5.97;;
14203;SDS011;7185;51.854;6.622;2023-03-29T09:34:48;10.60;;;6.00;;
14203;SDS011;7185;51.854;6.622;2023-03-29T09:37:29;17.08;;;6.63;;
14203;SDS011;7185;51.854;6.622;2023-03-29T09:40:05;12.25;;;5.50;;
14203;SDS011;7185;51.854;6.622;2023-03-29T09:42:43;12.95;;;6.00;;
14203;SDS011;7185;51.854;6.622;2023-03-29T09:45:15;10.45;;;5.80;;
14203;SDS011;7185;51.854;6.622;2023-03-29T09:47:48;13.95;;;5.75;;
14203;SDS011;7185;51.854;6.622;2023-03-29T09:50:25;11.10;;;6.30;;
14203;SDS011;7185;51.854;6.622;2023-03-29T09:53:00;10.25;;;5.90;;
14203;SDS011;7185;51.854;6.622;2023-03-29T09:55:34;10.07;;;5.93;;
14203;SDS011;7185;51.854;6.622;2023-03-29T09:58:12;8.77;;;5.88;;
14203;SDS011;7185;51.854;6.622;2023-03-29T10:00:45;10.90;;;5.95;;
14203;SDS011;7185;51.854;6.622;2023-03-29T10:03:18;11.30;;;5.60;;
14203;SDS011;7185;51.854;6.622;2023-03-29T10:05:51;12.52;;;6.47;;
14203;SDS011;7185;51.854;6.622;2023-03-29T10:08:26;15.02;;;6.05;;
14203;SDS011;7185;51.854;6.622;2023-03-29T10:11:00;10.02;;;5.50;;
14203;SDS011;7185;51.854;6.622;2023-03-29T10:13:44;12.25;;;6.38;;
14203;SDS011;7185;51.854;6.622;2023-03-29T10:16:20;10.30;;;5.60;;
14203;SDS011;7185;51.854;6.622;2023-03-29T10:18:53;10.45;;;5.88;;
14203;SDS011;7185;51.854;6.622;2023-03-29T10:21:24;11.15;;;6.05;;
14203;SDS011;7185;51.854;6.622;2023-03-29T10:23:59;13.38;;;7.28;;
14203;SDS011;7185;51.854;6.622;2023-03-29T10:26:31;13.10;;;6.78;;
14203;SDS011;7185;51.854;6.622;2023-03-29T10:29:06;14.27;;;6.40;;
14203;SDS011;7185;51.854;6.622;2023-03-29T10:31:38;12.30;;;6.78;;
14203;SDS011;7185;51.854;6.622;2023-03-29T10:34:12;11.48;;;5.93;;
14203;SDS011;7185;51.854;6.622;2023-03-29T10:36:49;12.95;;;6.70;;
14203;SDS011;7185;51.854;6.622;2023-03-29T10:39:26;13.77;;;7.03;;
14203;SDS011;7185;51.854;6.622;2023-03-29T10:41:59;9.18;;;6.53;;
14203;SDS011;7185;51.854;6.622;2023-03-29T10:44:34;10.57;;;6.63;;
14203;SDS011;7185;51.854;6.622;2023-03-29T10:47:08;13.82;;;6.80;;
14203;SDS011;7185;51.854;6.622;2023-03-29T10:49:45;10.43;;;6.47;;
14203;SDS011;7185;51.854;6.622;2023-03-29T10:52:21;13.45;;;6.53;;
14203;SDS011;7185;51.854;6.622;2023-03-29T10:54:53;13.93;;;6.75;;
14203;SDS011;7185;51.854;6.622;2023-03-29T10:57:29;12.18;;;6.50;;
14203;SDS011;7185;51.854;6.622;2023-03-29T11:00:12;13.48;;;7.80;;
14203;SDS011;7185;51.854;6.622;2023-03-29T11:02:58;13.57;;;6.93;;
14203;SDS011;7185;51.854;6.622;2023-03-29T11:05:43;9.27;;;6.53;;
14203;SDS011;7185;51.854;6.622;2023-03-29T11:08:34;15.88;;;6.80;;
14203;SDS011;7185;51.854;6.622;2023-03-29T11:11:27;12.82;;;6.78;;
14203;SDS011;7185;51.854;6.622;2023-03-29T11:14:12;14.20;;;7.57;;
14203;SDS011;7185;51.854;6.622;2023-03-29T11:16:54;13.52;;;7.10;;
14203;SDS011;7185;51.854;6.622;2023-03-29T11:22:43;13.05;;;7.45;;
14203;SDS011;7185;51.854;6.622;2023-03-29T11:25:22;13.55;;;8.02;;
14203;SDS011;7185;51.854;6.622;2023-03-29T11:28:03;11.98;;;6.97;;
14203;SDS011;7185;51.854;6.622;2023-03-29T11:30:43;13.70;;;7.20;;
14203;SDS011;7185;51.854;6.622;2023-03-29T11:33:24;11.57;;;6.80;;
14203;SDS011;7185;51.854;6.622;2023-03-29T11:36:04;10.85;;;7.20;;
14203;SDS011;7185;51.854;6.622;2023-03-29T11:38:47;14.68;;;7.82;;
14203;SDS011;7185;51.854;6.622;2023-03-29T11:41:25;13.95;;;8.02;;
14203;SDS011;7185;51.854;6.622;2023-03-29T11:44:08;14.32;;;7.90;;
14203;SDS011;7185;51.854;6.622;2023-03-29T11:46:46;15.07;;;8.27;;
14203;SDS011;7185;51.854;6.622;2023-03-29T11:49:27;14.50;;;8.52;;
14203;SDS011;7185;51.854;6.622;2023-03-29T11:52:07;14.38;;;9.05;;
14203;SDS011;7185;51.854;6.622;2023-03-29T11:54:47;21.50;;;9.82;;
14203;SDS011;7185;51.854;6.622;2023-03-29T11:57:25;17.60;;;9.20;;
14203;SDS011;7185;51.854;6.622;2023-03-29T12:00:00;16.55;;;10.45;;
14203;SDS011;7185;51.854;6.622;2023-03-29T12:02:35;19.42;;;10.43;;
14203;SDS011;7185;51.854;6.622;2023-03-29T12:05:12;17.95;;;10.88;;
14203;SDS011;7185;51.854;6.622;2023-03-29T12:07:51;20.65;;;12.38;;
14203;SDS011;7185;51.854;6.622;2023-03-29T12:10:30;14.23;;;9.13;;
14203;SDS011;7185;51.854;6.622;2023-03-29T12:13:06;19.50;;;10.10;;
14203;SDS011;7185;51.854;6.622;2023-03-29T12:15:47;14.43;;;10.25;;
14203;SDS011;7185;51.854;6.622;2023-03-29T12:18:24;17.67;;;10.52;;
14203;SDS011;7185;51.854;6.622;2023-03-29T12:21:02;18.35;;;10.10;;
14203;SDS011;7185;51.854;6.622;2023-03-29T12:23:42;15.60;;;10.60;;
14203;SDS011;7185;51.854;6.622;2023-03-29T12:26:17;15.80;;;10.00;;
14203;SDS011;7185;51.854;6.622;2023-03-29T12:29:12;17.35;;;10.27;;
14203;SDS011;7185;51.854;6.622;2023-03-29T12:32:04;16.05;;;9.90;;
14203;SDS011;7185;51.854;6.622;2023-03-29T12:34:53;14.63;;;9.05;;
14203;SDS011;7185;51.854;6.622;2023-03-29T12:37:39;20.38;;;9.93;;
14203;SDS011;7185;51.854;6.622;2023-03-29T12:40:16;16.80;;;9.43;;
14203;SDS011;7185;51.854;6.622;2023-03-29T12:42:50;18.10;;;9.82;;
14203;SDS011;7185;51.854;6.622;2023-03-29T12:45:27;14.75;;;9.30;;
14203;SDS011;7185;51.854;6.622;2023-03-29T12:48:02;15.95;;;9.15;;
14203;SDS011;7185;51.854;6.622;2023-03-29T12:50:34;13.43;;;8.23;;
14203;SDS011;7185;51.854;6.622;2023-03-29T12:53:14;13.25;;;8.20;;
14203;SDS011;7185;51.854;6.622;2023-03-29T12:55:56;14.15;;;8.23;;
14203;SDS011;7185;51.854;6.622;2023-03-29T12:58:49;12.93;;;8.40;;
14203;SDS011;7185;51.854;6.622;2023-03-29T13:01:36;14.25;;;7.70;;
14203;SDS011;7185;51.854;6.622;2023-03-29T13:04:14;13.15;;;8.35;;
14203;SDS011;7185;51.854;6.622;2023-03-29T13:06:55;12.05;;;7.90;;
14203;SDS011;7185;51.854;6.622;2023-03-29T13:09:34;15.05;;;7.55;;
14203;SDS011;7185;51.854;6.622;2023-03-29T13:12:21;15.15;;;7.30;;
14203;SDS011;7185;51.854;6.622;2023-03-29T13:14:56;12.32;;;7.13;;
14203;SDS011;7185;51.854;6.622;2023-03-29T13:17:33;10.40;;;7.07;;
14203;SDS011;7185;51.854;6.622;2023-03-29T13:20:25;12.80;;;6.53;;
14203;SDS011;7185;51.854;6.622;2023-03-29T13:23:22;12.27;;;7.43;;
14203;SDS011;7185;51.854;6.622;2023-03-29T13:26:14;10.68;;;6.82;;
14203;SDS011;7185;51.854;6.622;2023-03-29T13:29:11;12.70;;;7.15;;
14203;SDS011;7185;51.854;6.622;2023-03-29T13:32:00;15.35;;;7.57;;
14203;SDS011;7185;51.854;6.622;2023-03-29T13:34:47;12.48;;;7.13;;
14203;SDS011;7185;51.854;6.622;2023-03-29T13:37:28;11.95;;;6.43;;
14203;SDS011;7185;51.854;6.622;2023-03-29T13:40:24;13.10;;;6.90;;
14203;SDS011;7185;51.854;6.622;2023-03-29T13:43:08;10.75;;;6.35;;
14203;SDS011;7185;51.854;6.622;2023-03-29T13:45:41;11.07;;;6.85;;
14203;SDS011;7185;51.854;6.622;2023-03-29T13:48:20;13.10;;;7.05;;
14203;SDS011;7185;51.854;6.622;2023-03-29T13:50:55;11.93;;;6.13;;
14203;SDS011;7185;51.854;6.622;2023-03-29T13:53:30;12.13;;;6.10;;
14203;SDS011;7185;51.854;6.622;2023-03-29T13:56:05;9.57;;;6.20;;
14203;SDS011;7185;51.854;6.622;2023-03-29T13:58:44;10.73;;;6.00;;
14203;SDS011;7185;51.854;6.622;2023-03-29T14:01:20;12.32;;;6.03;;
14203;SDS011;7185;51.854;6.622;2023-03-29T14:03:57;7.28;;;5.50;;
14203;SDS011;7185;51.854;6.622;2023-03-29T14:06:30;10.25;;;5.45;;
14203;SDS011;7185;51.854;6.622;2023-03-29T14:09:04;11.60;;;5.78;;
14203;SDS011;7185;51.854;6.622;2023-03-29T14:11:38;10.23;;;5.70;;
14203;SDS011;7185;51.854;6.622;2023-03-29T14:14:16;9.77;;;5.78;;
14203;SDS011;7185;51.854;6.622;2023-03-29T14:16:53;13.07;;;6.85;;
14203;SDS011;7185;51.854;6.622;2023-03-29T14:19:28;8.20;;;5.60;;
14203;SDS011;7185;51.854;6.622;2023-03-29T14:22:01;10.57;;;5.40;;
14203;SDS011;7185;51.854;6.622;2023-03-29T14:24:38;10.48;;;5.70;;
14203;SDS011;7185;51.854;6.622;2023-03-29T14:27:11;13.40;;;6.45;;
14203;SDS011;7185;51.854;6.622;2023-03-29T14:29:48;12.70;;;5.97;;
14203;SDS011;7185;51.854;6.622;2023-03-29T14:32:26;9.50;;;5.68;;
14203;SDS011;7185;51.854;6.622;2023-03-29T14:35:00;8.75;;;5.45;;
14203;SDS011;7185;51.854;6.622;2023-03-29T14:37:31;7.72;;;5.25;;
14203;SDS011;7185;51.854;6.622;2023-03-29T14:40:03;6.97;;;4.60;;
14203;SDS011;7185;51.854;6.622;2023-03-29T14:42:44;8.32;;;4.63;;
14203;SDS011;7185;51.854;6.622;2023-03-29T14:45:19;11.43;;;5.35;;
14203;SDS011;7185;51.854;6.622;2023-03-29T14:47:53;13.40;;;5.32;;
14203;SDS011;7185;51.854;6.622;2023-03-29T14:50:25;9.40;;;5.13;;
14203;SDS011;7185;51.854;6.622;2023-03-29T14:52:59;10.82;;;4.78;;
14203;SDS011;7185;51.854;6.622;2023-03-29T14:55:32;7.75;;;4.93;;
14203;SDS011;7185;51.854;6.622;2023-03-29T14:58:12;7.38;;;4.47;;
14203;SDS011;7185;51.854;6.622;2023-03-29T15:00:51;9.00;;;4.60;;
14203;SDS011;7185;51.854;6.622;2023-03-29T15:03:23;8.57;;;4.53;;
14203;SDS011;7185;51.854;6.622;2023-03-29T15:05:56;8.38;;;4.68;;
14203;SDS011;7185;51.854;6.622;2023-03-29T15:08:31;11.25;;;5.22;;
14203;SDS011;7185;51.854;6.622;2023-03-29T15:11:09;8.32;;;4.75;;
14203;SDS011;7185;51.854;6.622;2023-03-29T15:13:44;10.13;;;5.20;;
14203;SDS011;7185;51.854;6.622;2023-03-29T15:16:19;10.32;;;5.07;;
14203;SDS011;7185;51.854;6.622;2023-03-29T15:18:51;8.13;;;3.90;;
14203;SDS011;7185;51.854;6.622;2023-03-29T15:21:23;8.30;;;4.55;;
14203;SDS011;7185;51.854;6.622;2023-03-29T15:24:02;11.68;;;5.22;;
14203;SDS011;7185;51.854;6.622;2023-03-29T15:26:35;8.07;;;4.45;;
14203;SDS011;7185;51.854;6.622;2023-03-29T15:29:10;11.35;;;4.90;;
14203;SDS011;7185;51.854;6.622;2023-03-29T15:31:53;9.73;;;5.07;;
14203;SDS011;7185;51.854;6.622;2023-03-29T15:34:28;12.07;;;5.30;;
14203;SDS011;7185;51.854;6.622;2023-03-29T15:37:00;9.25;;;4.68;;
14203;SDS011;7185;51.854;6.622;2023-03-29T15:39:33;9.10;;;4.97;;
14203;SDS011;7185;51.854;6.622;2023-03-29T15:42:05;7.65;;;4.93;;
14203;SDS011;7185;51.854;6.622;2023-03-29T15:44:36;9.25;;;5.13;;
14203;SDS011;7185;51.854;6.622;2023-03-29T15:47:11;10.18;;;5.40;;
14203;SDS011;7185;51.854;6.622;2023-03-29T15:49:43;7.85;;;4.38;;